Aviation Digital Data Service (ADDS)

Output produced by METARs form (0118 UTC 16 January 2019)
found at http://www.aviationweather.gov/metar/data/
 
TAF KDAA 151800Z 1518/1624 28009KT 9999 FEW200 QNH3016INS 
     BECMG 1521/1522 28009KT 9999 BKN020 QNH3014INS 
     BECMG 1608/1609 28006KT 6000 BR BKN020 QNH3013INS TX04/1518Z TNM02/1605Z
       
KDAB 152337Z 1600/1624 01009KT P6SM BKN035 
     FM161400 34006KT P6SM FEW030 SCT250 
     FM161800 04010KT P6SM SCT040 SCT250
       
KDAG 152338Z 1600/1624 12006KT P6SM -SHRA SCT015 OVC050 
     TEMPO 1600/1603 OVC015 
     FM160400 28005KT P6SM OVC040 
     FM161800 09005KT P6SM SCT040 OVC200
       
KDAL 152331Z 1600/1624 16008KT P6SM OVC035 
     TEMPO 1601/1603 BKN025 
     FM160300 17007KT P6SM BKN025 
     FM161100 18010KT P6SM SCT004 OVC010 
     FM161900 19014KT P6SM BKN020 
     FM162200 19013KT P6SM SCT025 BKN250
       
KDAN 152326Z 1600/1624 32003KT P6SM FEW050 
     FM161200 28007KT P6SM FEW250
       
KDAY 152331Z 1600/1624 22009KT 3SM -FZDZ BR OVC007 
     TEMPO 1600/1604 3/4SM -FZDZ BR OVC003 
     FM160400 24010KT 2SM BR OVC003 
     FM161500 27009KT P6SM OVC006 
     FM161800 30007KT P6SM BKN008 
     FM162100 30007KT P6SM BKN012
       
KDBQ 152321Z 1600/1624 25012KT P6SM OVC005 
     TEMPO 1600/1603 3SM -FZDZ BR BKN004 
     FM160600 32009KT P6SM OVC006 
     FM161200 36010KT P6SM OVC015 
     FM161700 01008KT P6SM BKN020
       
KDCA 152340Z 1600/1706 35005KT P6SM SKC 
     FM160500 24004KT P6SM SKC 
     FM161700 28007KT P6SM BKN035 
     FM162200 27006KT P6SM SCT035
       
KDDC 152342Z 1600/1624 21005KT P6SM FEW250 
     FM161500 04008KT P6SM BKN070 
     FM161700 07009KT P6SM BKN030 
     FM161900 08008KT P6SM BKN003 
     FM162300 05008KT P6SM BKN001
       
KDEC 152325Z 1600/1624 22010KT 3SM BR OVC004 
     FM160300 22010KT 3SM -FZDZ BR OVC004 
     FM161300 36004KT P6SM OVC004 
     FM162200 07005KT P6SM OVC012
       
KDEN 152339Z 1600/1706 17007KT P6SM FEW140 BKN220 
     FM160300 21009KT P6SM SCT120 BKN180 
     FM161500 26007KT P6SM BKN100 OVC180 
     FM170400 24006KT P6SM FEW080 SCT210
       
KDET 152337Z 1600/1624 22013KT 6SM HZ OVC013 
     FM160200 22013KT 4SM BR OVC007 
     FM160600 24010KT 2SM -FZDZ BR OVC004 
     FM161100 28010KT 4SM BR OVC007 
     FM161400 30013KT P6SM BKN020 OVC035 
     FM161700 36013KT P6SM BKN035 
     FM162000 03007KT P6SM SCT035 BKN200
       
KDFW 152331Z 1600/1706 16008KT P6SM OVC035 
     TEMPO 1601/1603 BKN025 
     FM160300 17007KT P6SM BKN025 
     FM161100 18010KT P6SM SCT004 OVC010 
     FM161900 19014KT P6SM BKN020 
     FM162200 19013KT P6SM SCT025 BKN250
       
KDHN 152320Z 1600/1624 32005KT P6SM FEW250
       
KDHT 152346Z 1600/1624 05005KT P6SM SCT300 
     FM160900 27006KT P6SM BKN300 
     FM161700 24019G30KT P6SM SCT300
       
KDIK 152323Z 1600/1624 01009KT P6SM OVC010 
     FM160300 05007KT P6SM OVC008 
     FM160800 13008KT P6SM OVC008 
     FM161800 16008KT P6SM OVC015
       
TAF AMD KDLF 152210Z 1522/1624 15006KT 8000 -SHRA OVC007 QNH3020INS 
     TEMPO 1522/1602 OVC006 
     BECMG 1602/1603 13006KT 6000 BR OVC005 QNH3012INS 
     BECMG 1617/1618 VRB03KT 9999 NSW BKN009 QNH3010INS 
     BECMG 1620/1621 VRB03KT 9999 SCT009 QNH3010INS TX13/1618Z TN05/1612Z
       
KDLH 160056Z 1601/1624 31012G24KT P6SM SCT015 OVC025 
     FM160200 31015G26KT P6SM BKN025 
     FM160600 33013G18KT P6SM SCT025 SCT120 
     FM161100 34008KT P6SM SCT120 
     FM161700 32006KT P6SM SCT250
       
KDLS 152320Z 1600/1624 11006KT P6SM BKN025 OVC035 
     FM161600 11008KT P6SM VCSH OVC020
       
TAF KDMA 152200Z 1522/1704 22009KT 9999 VCSH BKN070 BKN200 QNH3005INS 
     BECMG 1602/1603 14009KT 9999 NSW BKN070 BKN200 QNH3013INS 
     BECMG 1608/1609 14009KT 9999 BKN040 BKN200 QNH3016INS 
     BECMG 1620/1621 27009KT 9999 SCT070 BKN200 QNH3014INS 
     BECMG 1700/1701 35009KT 9999 FEW100 BKN200 QNH3011INS TX19/1522Z TN07/1614Z
       
KDMN 152323Z 1600/1624 VRB05KT P6SM BKN250 
     FM160400 27005KT P6SM FEW050 BKN200 
     FM161500 27008KT P6SM SCT050 BKN150
       
KDNL 152321Z 1600/1624 VRB03KT P6SM SCT035 
     TEMPO 1606/1608 3SM BR 
     FM160800 VRB03KT 1/2SM FG VV003 
     FM161400 VRB03KT P6SM SCT250
       
TAF KDOV 160000Z 1600/1706 27009KT 9999 FEW200 QNH3011INS 
     BECMG 1614/1615 26012KT 9999 FEW020 QNH3007INS WND 29009KT AFT 1622
TX05/1617Z TNM05/1608Z
       
KDPA 152359Z 1600/1624 23013G21KT 4SM -FZDZSN BR OVC007 
     FM160400 26010G15KT 2SM -FZDZSN BR SCT004 OVC006 
     FM160800 30009KT P6SM OVC010 
     FM161200 33009KT P6SM BKN025 
     FM161500 01010KT P6SM SCT025 BKN250 
     FM161800 04009KT P6SM BKN030
       
KDRO 152344Z 1600/1624 08005KT P6SM OVC050 
     FM160100 VRB03KT P6SM VCSH BKN030 OVC040 
     FM160300 VRB04KT 6SM -SHSNRA BKN015 OVC025 
     FM160500 10007KT 4SM -SHSN BR BKN008 OVC030 
     FM161400 21009KT 2SM -SHSN BR BKN008 OVC015
       
KDRT 152333Z 1600/1624 12006KT 6SM BR OVC008 
     FM160500 12005KT 5SM BR OVC005 
     FM160900 11005KT 1/2SM FG OVC003 
     FM161700 13005KT 3SM BR OVC005 
     FM162000 14006KT P6SM SCT010 SCT250
       
KDSM 152337Z 1600/1624 24011KT P6SM OVC008 
     FM160800 34007KT P6SM SCT012 
     FM161200 03006KT P6SM SCT030 
     FM162100 08006KT P6SM BKN025
       
KDTW 152337Z 1600/1706 22013KT 6SM HZ OVC013 
     FM160200 22013KT 4SM BR OVC007 
     FM160600 24010KT 2SM -FZDZ BR OVC004 
     FM161100 28010KT 4SM BR OVC007 
     FM161400 30013KT P6SM BKN020 OVC035 
     FM161700 36013KT P6SM BKN035 
     FM162000 03007KT P6SM SCT035 BKN200
       
KDUG 152320Z 1600/1624 19007KT P6SM SCT050 BKN100 
     FM160900 VRB04KT P6SM SCT050 
     FM162000 27007KT P6SM BKN200
       
KDUJ 152334Z 1600/1624 24008KT P6SM VCSH OVC015 
     FM160500 24010G18KT 3SM -FZDZSN BR OVC007 
     FM161000 25012G20KT 3SM -SHSN OVC007 
     FM161800 28014G22KT 6SM -SHSN OVC015
       
KDVL 152323Z 1600/1624 36013KT P6SM VCSH SCT015 
     FM160100 01006KT P6SM SKC 
     FM160900 VRB03KT P6SM SKC 
     FM162100 14005KT P6SM BKN100
       
TAF KDYS 160100Z 1601/1707 20006KT 9999 SCT020 510053 QNH3015INS 
     BECMG 1606/1607 20006KT 9999 OVC007 510053 QNH3019INS 
     BECMG 1610/1611 21006KT 9999 OVC003 510053 QNH3023INS 
     BECMG 1614/1615 22010KT 9999 OVC010 QNH3023INS 
     BECMG 1617/1618 21012KT 9999 FEW060 QNH3017INS 
     BECMG 1621/1622 22010KT 9999 SKC QNH3014INS TX17/1622Z TN06/1614Z